Time;durP1;ratioP1;P1;durP2;ratioP2;P2;SDS_P1;SDS_P2;PMS_P1;PMS_P2;Temp;Humidity;BMP_temperature;BMP_pressure;BME280_temperature;BME280_humidity;BME280_pressure;Samples;Min_cycle;Max_cycle;Signal;HPM_P1;HPM_P2
2024/02/05 00:01:58;;;;;;;24.13;5.38;;;11.50;91.70;;;;;;5074438;28;20020;-46
2024/02/05 00:04:24;;;;;;;17.90;4.65;;;11.50;91.70;;;;;;5074465;28;20044;-38
2024/02/05 00:06:50;;;;;;;23.45;4.97;;;11.50;91.60;;;;;;5074493;28;20017;-38
2024/02/05 00:09:15;;;;;;;20.40;5.05;;;11.40;91.60;;;;;;5074191;28;20036;-37
2024/02/05 00:11:41;;;;;;;25.17;4.88;;;11.40;91.60;;;;;;5074007;28;20059;-39
2024/02/05 00:14:06;;;;;;;22.02;4.75;;;11.40;91.60;;;;;;5074194;28;20095;-39
2024/02/05 00:16:32;;;;;;;18.17;4.45;;;11.40;91.60;;;;;;5074348;28;20027;-37
2024/02/05 00:18:58;;;;;;;15.65;4.00;;;11.40;91.70;;;;;;5074016;28;20021;-37
2024/02/05 00:21:24;;;;;;;25.73;5.45;;;11.40;91.60;;;;;;5073929;28;20465;-38
2024/02/05 00:23:50;;;;;;;20.52;5.07;;;11.40;91.60;;;;;;5074331;28;20063;-35
2024/02/05 00:26:15;;;;;;;25.10;6.18;;;11.40;91.70;;;;;;5073874;28;20040;-38
2024/02/05 00:28:41;;;;;;;24.83;6.20;;;11.30;91.60;;;;;;5073894;28;20066;-36
2024/02/05 00:31:06;;;;;;;16.65;5.03;;;11.30;91.60;;;;;;5073642;28;20036;-36
2024/02/05 00:33:32;;;;;;;24.35;6.07;;;11.30;91.60;;;;;;5072402;28;20017;-37
2024/02/05 00:35:57;;;;;;;29.10;5.63;;;11.20;91.60;;;;;;5073577;28;20086;-35
2024/02/05 00:38:23;;;;;;;18.25;5.35;;;11.30;91.70;;;;;;5073757;28;20418;-40
2024/02/05 00:40:51;;;;;;;22.60;5.20;;;11.30;91.80;;;;;;5072472;28;20029;-37
2024/02/05 00:43:16;;;;;;;18.58;5.30;;;11.30;91.80;;;;;;5073729;28;20027;-37
2024/02/05 00:45:42;;;;;;;23.70;5.47;;;11.20;91.70;;;;;;5072234;28;20111;-38
2024/02/05 00:48:08;;;;;;;25.48;5.25;;;11.20;91.70;;;;;;5073299;28;20024;-35
2024/02/05 00:50:33;;;;;;;21.75;4.88;;;11.20;91.70;;;;;;5073598;28;20131;-37
2024/02/05 00:52:59;;;;;;;24.58;5.28;;;11.20;91.80;;;;;;5073742;28;20324;-38
2024/02/05 00:55:25;;;;;;;25.58;5.85;;;11.20;91.80;;;;;;5073664;28;20048;-38
2024/02/05 00:57:50;;;;;;;29.73;6.85;;;11.20;91.80;;;;;;5073236;28;20031;-37
2024/02/05 01:00:16;;;;;;;23.88;6.00;;;11.20;91.70;;;;;;5073392;28;20025;-37
2024/02/05 01:02:42;;;;;;;27.52;6.13;;;11.20;91.70;;;;;;5073109;28;20032;-36
2024/02/05 01:05:07;;;;;;;20.17;4.93;;;11.20;91.80;;;;;;5073035;28;20029;-36
2024/02/05 01:07:33;;;;;;;18.33;5.47;;;11.20;91.80;;;;;;5073030;28;20025;-37
2024/02/05 01:09:59;;;;;;;18.63;4.38;;;11.20;91.70;;;;;;5073164;28;20033;-39
2024/02/05 01:12:24;;;;;;;27.80;5.43;;;11.20;91.70;;;;;;5073053;28;20159;-39
2024/02/05 01:14:50;;;;;;;23.95;5.38;;;11.20;91.70;;;;;;5072788;28;20032;-40
2024/02/05 01:17:18;;;;;;;22.23;5.40;;;11.20;91.90;;;;;;5073317;28;20016;-37
2024/02/05 01:19:44;;;;;;;23.00;5.32;;;11.20;91.60;;;;;;5072640;28;20024;-37
2024/02/05 01:22:10;;;;;;;22.75;5.75;;;11.20;91.60;;;;;;5072795;28;20066;-36
2024/02/05 01:24:35;;;;;;;20.92;4.75;;;11.20;91.60;;;;;;5072743;28;20439;-38
2024/02/05 01:27:01;;;;;;;20.15;5.10;;;11.20;91.60;;;;;;5072601;28;20104;-35
2024/02/05 01:29:27;;;;;;;25.58;5.47;;;11.10;91.70;;;;;;5072589;28;20032;-36
2024/02/05 01:31:53;;;;;;;21.60;4.90;;;11.10;91.60;;;;;;5072522;28;20024;-37
2024/02/05 01:34:18;;;;;;;22.05;5.57;;;11.20;91.70;;;;;;5072435;28;20122;-41
2024/02/05 01:36:44;;;;;;;22.17;5.10;;;11.20;91.70;;;;;;5072444;28;20028;-40
2024/02/05 01:39:10;;;;;;;22.17;4.75;;;11.10;91.70;;;;;;5072460;28;20012;-37
2024/02/05 01:41:36;;;;;;;22.98;5.38;;;11.10;91.70;;;;;;5072491;28;20473;-36
2024/02/05 01:44:02;;;;;;;18.10;4.22;;;11.10;91.70;;;;;;5072233;28;20031;-35
2024/02/05 01:46:29;;;;;;;23.33;5.03;;;11.10;91.70;;;;;;5072290;28;20147;-36
2024/02/05 01:49:00;;;;;;;21.30;4.93;;;11.10;91.70;;;;;;5072283;28;20024;-36
2024/02/05 01:51:26;;;;;;;16.88;4.53;;;11.10;91.70;;;;;;5072162;28;20485;-37
2024/02/05 01:53:55;;;;;;;17.08;4.22;;;11.10;91.80;;;;;;5072429;28;20047;-37
2024/02/05 01:56:32;;;;;;;23.75;5.35;;;11.10;91.80;;;;;;5072122;28;20102;-36
2024/02/05 01:59:00;;;;;;;25.25;5.20;;;11.10;91.70;;;;;;5072174;28;20025;-37
2024/02/05 02:01:28;;;;;;;24.67;5.38;;;11.00;91.60;;;;;;5072002;28;20045;-36
2024/02/05 02:03:55;;;;;;;26.98;5.50;;;11.00;91.60;;;;;;5071973;28;20025;-38
2024/02/05 02:06:21;;;;;;;22.83;5.10;;;11.00;91.60;;;;;;5071855;28;20021;-37
2024/02/05 02:08:48;;;;;;;20.63;4.88;;;11.00;91.60;;;;;;5071912;28;20512;-38
2024/02/05 02:11:13;;;;;;;20.92;5.03;;;11.00;91.70;;;;;;5071722;28;20035;-37
2024/02/05 02:13:39;;;;;;;15.32;4.53;;;11.00;91.70;;;;;;5071810;28;20477;-36
2024/02/05 02:16:10;;;;;;;22.83;5.15;;;11.00;91.70;;;;;;5072101;28;20021;-38
2024/02/05 02:18:37;;;;;;;19.40;5.15;;;10.90;91.70;;;;;;5071337;28;20530;-38
2024/02/05 02:21:04;;;;;;;21.15;5.57;;;10.90;91.70;;;;;;5071652;28;20496;-37
2024/02/05 02:23:33;;;;;;;19.95;4.65;;;10.90;91.70;;;;;;5072007;28;20028;-40
2024/02/05 02:26:00;;;;;;;23.60;5.70;;;10.80;91.70;;;;;;5072061;28;20103;-37
2024/02/05 02:28:26;;;;;;;22.15;4.63;;;10.80;91.70;;;;;;5071760;28;20095;-38
2024/02/05 02:30:53;;;;;;;28.13;5.60;;;10.80;91.80;;;;;;5071594;28;20032;-37
2024/02/05 02:33:23;;;;;;;23.00;5.82;;;10.80;91.70;;;;;;5070538;28;20025;-36
2024/02/05 02:36:02;;;;;;;21.92;5.30;;;10.70;91.80;;;;;;5070233;28;20040;-37
2024/02/05 02:38:48;;;;;;;21.00;6.03;;;10.70;91.80;;;;;;5071631;28;20021;-36
2024/02/05 02:41:21;;;;;;;24.60;5.55;;;10.70;91.80;;;;;;5071527;28;20473;-36
2024/02/05 02:43:58;;;;;;;21.48;5.88;;;10.70;91.80;;;;;;5071825;28;20102;-39
2024/02/05 02:46:25;;;;;;;28.73;6.75;;;10.60;91.80;;;;;;5071779;28;20074;-37
2024/02/05 02:48:51;;;;;;;23.92;5.38;;;10.60;91.90;;;;;;5070192;28;20021;-36
2024/02/05 02:51:16;;;;;;;28.10;6.50;;;10.60;91.90;;;;;;5071408;28;20025;-38
2024/02/05 02:53:42;;;;;;;28.45;6.63;;;10.60;91.90;;;;;;5071395;28;20028;-37
2024/02/05 02:56:09;;;;;;;24.90;5.80;;;10.60;91.90;;;;;;5071576;28;20496;-37
2024/02/05 02:58:35;;;;;;;23.60;5.53;;;10.60;91.90;;;;;;5071636;28;20477;-38
2024/02/05 03:01:01;;;;;;;34.15;6.90;;;10.60;91.90;;;;;;5071563;28;20032;-38
2024/02/05 03:03:26;;;;;;;26.63;6.20;;;10.60;92.00;;;;;;5071681;28;20024;-39
2024/02/05 03:05:52;;;;;;;34.08;6.60;;;10.60;92.00;;;;;;5071527;28;20031;-37
2024/02/05 03:08:18;;;;;;;27.10;5.70;;;10.50;92.00;;;;;;5071641;28;20074;-37
2024/02/05 03:10:43;;;;;;;29.25;5.55;;;10.50;92.00;;;;;;5071405;28;20052;-37
2024/02/05 03:13:10;;;;;;;25.63;5.95;;;10.50;92.10;;;;;;5071336;28;20385;-38
2024/02/05 03:15:36;;;;;;;27.17;6.50;;;10.50;92.10;;;;;;5071372;28;20078;-37
2024/02/05 03:18:01;;;;;;;29.92;6.00;;;10.50;92.10;;;;;;5071134;28;20013;-37
2024/02/05 03:20:38;;;;;;;27.45;6.22;;;10.50;92.10;;;;;;5071084;28;20029;-36
2024/02/05 03:23:05;;;;;;;24.55;6.82;;;10.50;92.30;;;;;;5071533;28;20017;-39
2024/02/05 03:25:32;;;;;;;23.05;6.70;;;10.60;92.10;;;;;;5071307;28;20353;-36
2024/02/05 03:27:59;;;;;;;23.63;6.47;;;10.60;92.10;;;;;;5070053;28;20070;-35
2024/02/05 03:30:32;;;;;;;30.05;7.38;;;10.60;92.10;;;;;;5071295;28;20472;-37
2024/02/05 03:33:01;;;;;;;27.90;6.73;;;10.60;92.00;;;;;;5074754;28;20025;-36
2024/02/05 03:35:28;;;;;;;26.50;6.65;;;10.60;92.10;;;;;;5074824;28;20283;-36
2024/02/05 03:37:55;;;;;;;23.50;6.18;;;10.60;92.00;;;;;;5075090;28;20024;-36
2024/02/05 03:40:22;;;;;;;34.05;7.38;;;10.60;92.00;;;;;;5074633;28;20027;-35
2024/02/05 03:42:48;;;;;;;29.27;6.68;;;10.60;92.00;;;;;;5074503;28;20090;-36
2024/02/05 03:45:14;;;;;;;28.15;6.45;;;10.60;91.90;;;;;;5074646;28;20044;-36
2024/02/05 03:47:40;;;;;;;27.95;7.13;;;10.60;91.90;;;;;;5074697;28;20036;-37
2024/02/05 03:50:10;;;;;;;23.38;6.55;;;10.60;91.90;;;;;;5074770;28;20062;-36
2024/02/05 03:52:39;;;;;;;24.67;5.95;;;10.60;91.90;;;;;;5074822;28;20032;-38
2024/02/05 03:55:06;;;;;;;28.35;6.57;;;10.70;91.90;;;;;;5074739;28;20029;-37
2024/02/05 03:57:32;;;;;;;24.50;6.15;;;10.60;91.80;;;;;;5074531;28;20046;-35
2024/02/05 03:59:59;;;;;;;27.88;6.22;;;10.60;91.90;;;;;;5074250;28;20035;-36
2024/02/05 04:02:26;;;;;;;23.30;5.65;;;10.70;92.10;;;;;;5074489;28;20028;-36
2024/02/05 04:04:52;;;;;;;27.17;6.32;;;10.70;91.90;;;;;;5074442;28;20037;-35
2024/02/05 04:07:18;;;;;;;24.20;6.68;;;10.70;91.90;;;;;;5074627;28;20085;-36
2024/02/05 04:09:44;;;;;;;26.67;6.93;;;10.70;91.90;;;;;;5073987;28;20029;-36
2024/02/05 04:12:10;;;;;;;23.67;6.32;;;10.70;91.80;;;;;;5074594;28;20041;-36
2024/02/05 04:14:35;;;;;;;23.80;6.07;;;10.70;91.80;;;;;;5074082;28;20063;-37
2024/02/05 04:17:01;;;;;;;23.85;5.78;;;10.70;91.90;;;;;;5074044;28;20503;-36
2024/02/05 04:19:26;;;;;;;23.40;6.05;;;10.70;91.80;;;;;;5074079;28;20024;-37
2024/02/05 04:21:52;;;;;;;27.13;6.18;;;10.70;91.80;;;;;;5074075;28;20035;-38
2024/02/05 04:24:18;;;;;;;24.75;7.05;;;10.70;92.00;;;;;;5073899;28;20116;-37
2024/02/05 04:26:44;;;;;;;26.17;7.22;;;10.70;91.70;;;;;;5074155;28;20024;-37
2024/02/05 04:29:20;;;;;;;21.95;5.78;;;10.70;91.80;;;;;;5073869;28;20043;-37
2024/02/05 04:31:49;;;;;;;24.95;6.47;;;10.60;91.70;;;;;;5072375;28;20099;-37
2024/02/05 04:34:14;;;;;;;23.30;5.80;;;10.60;91.70;;;;;;5073824;28;20041;-37
2024/02/05 04:36:40;;;;;;;20.98;6.10;;;10.60;91.80;;;;;;5073957;28;20075;-36
2024/02/05 04:39:10;;;;;;;22.17;5.57;;;10.60;92.10;;;;;;5072434;28;20055;-38
2024/02/05 04:41:36;;;;;;;27.73;7.68;;;10.60;91.80;;;;;;5073131;28;20033;-38
2024/02/05 04:44:01;;;;;;;28.58;6.80;;;10.60;91.80;;;;;;5073424;28;20021;-35
2024/02/05 04:46:27;;;;;;;28.40;7.40;;;10.60;91.80;;;;;;5072025;28;20024;-36
2024/02/05 04:48:53;;;;;;;29.35;6.90;;;10.60;91.80;;;;;;5073281;28;20540;-36
2024/02/05 04:51:18;;;;;;;26.90;6.65;;;10.60;91.80;;;;;;5073434;28;20115;-36
2024/02/05 04:53:44;;;;;;;21.35;6.63;;;10.50;91.80;;;;;;5073266;28;20031;-39
2024/02/05 04:56:09;;;;;;;26.05;5.75;;;10.50;91.80;;;;;;5073277;28;20021;-37
2024/02/05 04:58:35;;;;;;;27.25;6.07;;;10.50;91.80;;;;;;5073297;28;20392;-42
2024/02/05 05:01:01;;;;;;;23.35;6.13;;;10.60;91.80;;;;;;5072168;28;20469;-36
2024/02/05 05:03:27;;;;;;;25.98;5.90;;;10.50;91.80;;;;;;5073022;28;20046;-37
2024/02/05 05:05:52;;;;;;;28.38;6.53;;;10.50;92.10;;;;;;5072914;28;20032;-37
2024/02/05 05:08:18;;;;;;;25.73;5.90;;;10.50;91.80;;;;;;5073211;28;20503;-37
2024/02/05 05:10:43;;;;;;;22.55;6.05;;;10.50;91.80;;;;;;5072904;28;20532;-37
2024/02/05 05:13:09;;;;;;;29.05;5.95;;;10.50;91.80;;;;;;5073098;28;20024;-37
2024/02/05 05:15:35;;;;;;;30.02;6.47;;;10.50;91.80;;;;;;5073005;28;20021;-38
2024/02/05 05:18:00;;;;;;;24.55;6.53;;;10.50;91.80;;;;;;5073139;28;20087;-36
2024/02/05 05:20:26;;;;;;;28.90;6.40;;;10.50;91.80;;;;;;5073198;28;20354;-38
2024/02/05 05:22:51;;;;;;;25.63;5.88;;;10.50;91.80;;;;;;5072841;28;20052;-36
2024/02/05 05:25:17;;;;;;;22.98;5.50;;;10.50;91.80;;;;;;5072768;28;20287;-37
2024/02/05 05:27:43;;;;;;;26.98;6.18;;;10.50;91.80;;;;;;5072549;28;20495;-41
2024/02/05 05:30:09;;;;;;;25.35;6.25;;;10.40;91.70;;;;;;5072526;28;20070;-37
2024/02/05 05:32:34;;;;;;;20.25;5.28;;;10.40;91.70;;;;;;5072780;28;20174;-37
2024/02/05 05:35:00;;;;;;;18.50;5.70;;;10.40;91.80;;;;;;5072288;28;20540;-41
2024/02/05 05:37:26;;;;;;;29.08;6.65;;;10.40;91.80;;;;;;5072139;28;20027;-36
2024/02/05 05:39:51;;;;;;;20.00;6.22;;;10.40;91.80;;;;;;5072086;28;20444;-36
2024/02/05 05:42:18;;;;;;;27.83;7.22;;;10.40;91.80;;;;;;5072620;28;20031;-37
2024/02/05 05:44:44;;;;;;;21.58;5.25;;;10.40;91.70;;;;;;5072538;28;20025;-36
2024/02/05 05:47:09;;;;;;;30.20;6.70;;;10.40;91.70;;;;;;5072233;28;20103;-37
2024/02/05 05:49:35;;;;;;;30.90;5.78;;;10.40;91.90;;;;;;5072152;28;20171;-36
2024/02/05 05:52:01;;;;;;;22.75;6.10;;;10.40;91.60;;;;;;5070923;28;20031;-36
2024/02/05 05:54:26;;;;;;;16.35;5.13;;;10.40;91.50;;;;;;5071606;28;20082;-37
2024/02/05 05:56:52;;;;;;;21.85;5.75;;;10.40;91.50;;;;;;5072200;28;20105;-36
2024/02/05 05:59:19;;;;;;;22.52;5.32;;;10.40;91.50;;;;;;5072073;28;20380;-37
2024/02/05 06:01:44;;;;;;;20.85;5.20;;;10.40;91.40;;;;;;5072027;28;20218;-37
2024/02/05 06:04:10;;;;;;;22.58;5.65;;;10.40;91.40;;;;;;5070911;28;20370;-36
2024/02/05 06:06:37;;;;;;;27.58;5.30;;;10.40;91.30;;;;;;5072196;28;20017;-37
2024/02/05 06:09:08;;;;;;;25.38;5.30;;;10.40;91.30;;;;;;5072072;28;20012;-37
2024/02/05 06:11:33;;;;;;;22.95;4.80;;;10.40;91.30;;;;;;5071653;28;20078;-37
2024/02/05 06:13:59;;;;;;;21.95;5.40;;;10.40;91.20;;;;;;5070803;28;20021;-37
2024/02/05 06:16:25;;;;;;;23.30;5.30;;;10.40;91.20;;;;;;5072098;28;20033;-44
2024/02/05 06:18:51;;;;;;;24.30;5.80;;;10.40;91.20;;;;;;5072139;28;20103;-37
2024/02/05 06:21:17;;;;;;;20.95;5.05;;;10.40;91.20;;;;;;5071778;28;20425;-36
2024/02/05 06:23:43;;;;;;;20.15;5.30;;;10.40;91.10;;;;;;5072152;28;20691;-37
2024/02/05 06:26:10;;;;;;;28.30;5.63;;;10.40;91.10;;;;;;5071954;28;20017;-37
2024/02/05 06:28:37;;;;;;;23.05;5.80;;;10.40;91.10;;;;;;5071973;28;20489;-36
2024/02/05 06:31:03;;;;;;;24.63;5.88;;;10.40;91.10;;;;;;5070192;28;20404;-37
2024/02/05 06:33:33;;;;;;;31.67;6.28;;;10.40;91.10;;;;;;5070414;28;20012;-33
2024/02/05 06:35:59;;;;;;;19.65;5.25;;;10.40;91.00;;;;;;5071511;28;20063;-37
2024/02/05 06:38:24;;;;;;;20.70;5.80;;;10.40;91.00;;;;;;5071703;28;20016;-37
2024/02/05 06:40:51;;;;;;;26.65;6.22;;;10.40;91.00;;;;;;5071692;28;20021;-37
2024/02/05 06:43:16;;;;;;;29.52;6.10;;;10.40;91.00;;;;;;5071291;28;20031;-37
2024/02/05 06:45:42;;;;;;;22.67;6.25;;;10.40;90.80;;;;;;5071487;28;20033;-37
2024/02/05 06:48:08;;;;;;;24.45;5.40;;;10.30;90.90;;;;;;5071566;28;20331;-37
2024/02/05 06:50:33;;;;;;;23.48;5.50;;;10.30;90.90;;;;;;5071176;28;20029;-36
2024/02/05 06:52:59;;;;;;;19.65;5.40;;;10.30;90.90;;;;;;5071430;28;20082;-37
2024/02/05 06:55:25;;;;;;;18.60;4.80;;;10.30;90.90;;;;;;5071732;28;20456;-37
2024/02/05 06:57:50;;;;;;;25.58;6.75;;;10.30;90.90;;;;;;5071683;28;20013;-37
2024/02/05 07:00:16;;;;;;;25.65;6.45;;;10.30;90.90;;;;;;5070126;28;20028;-39
2024/02/05 07:02:42;;;;;;;23.77;6.95;;;10.30;90.80;;;;;;5071198;28;20024;-37
2024/02/05 07:05:10;;;;;;;24.85;5.75;;;10.30;90.80;;;;;;5072188;28;20024;-38
2024/02/05 07:07:36;;;;;;;24.30;5.10;;;10.30;90.80;;;;;;5075251;28;20024;-37
2024/02/05 07:10:02;;;;;;;30.92;5.85;;;10.30;90.80;;;;;;5075266;28;20051;-36
2024/02/05 07:12:28;;;;;;;27.58;6.60;;;10.30;90.90;;;;;;5075632;28;20063;-38
2024/02/05 07:14:53;;;;;;;23.05;5.55;;;10.30;90.80;;;;;;5075295;28;20064;-35
2024/02/05 07:17:33;;;;;;;17.75;5.75;;;10.30;90.80;;;;;;5075429;28;20070;-36
2024/02/05 07:20:01;;;;;;;20.42;5.45;;;10.30;90.70;;;;;;5075185;28;20020;-36
2024/02/05 07:22:27;;;;;;;17.38;4.60;;;10.30;90.70;;;;;;5075073;28;20025;-38
2024/02/05 07:24:53;;;;;;;22.20;5.30;;;10.30;90.70;;;;;;5075069;28;20040;-36
2024/02/05 07:27:22;;;;;;;26.52;5.78;;;10.30;90.80;;;;;;5075049;28;20024;-37
2024/02/05 07:29:47;;;;;;;27.52;7.15;;;10.30;90.70;;;;;;5074854;28;20388;-37
2024/02/05 07:32:13;;;;;;;21.92;6.07;;;10.30;90.60;;;;;;5074970;28;20020;-40
2024/02/05 07:34:38;;;;;;;19.92;4.97;;;10.30;90.60;;;;;;5075132;28;20143;-37
2024/02/05 07:37:04;;;;;;;24.58;5.75;;;10.30;90.70;;;;;;5074850;28;20540;-36
2024/02/05 07:39:30;;;;;;;23.50;5.82;;;10.30;90.70;;;;;;5074822;28;20032;-34
2024/02/05 07:41:55;;;;;;;24.00;6.47;;;10.30;90.60;;;;;;5074823;28;20017;-37
2024/02/05 07:44:21;;;;;;;18.13;5.75;;;10.30;90.60;;;;;;5073374;28;20064;-36
2024/02/05 07:46:47;;;;;;;24.08;5.90;;;10.20;90.60;;;;;;5073563;28;20550;-38
2024/02/05 07:49:13;;;;;;;28.65;6.90;;;10.20;90.70;;;;;;5074755;28;20016;-36
2024/02/05 07:51:46;;;;;;;19.00;6.22;;;10.20;90.50;;;;;;5074806;28;20017;-37
2024/02/05 07:54:15;;;;;;;21.58;5.78;;;10.20;90.60;;;;;;5074859;28;20025;-36
2024/02/05 07:56:42;;;;;;;28.48;5.82;;;10.20;90.60;;;;;;5074574;28;20495;-35
2024/02/05 07:59:09;;;;;;;25.42;6.32;;;10.20;90.60;;;;;;5074515;28;20096;-37
2024/02/05 08:01:34;;;;;;;26.02;5.90;;;10.30;90.60;;;;;;5074189;28;20055;-35
2024/02/05 08:04:00;;;;;;;29.80;5.97;;;10.20;90.60;;;;;;5074351;28;20104;-37
2024/02/05 08:06:28;;;;;;;22.42;5.82;;;10.20;90.60;;;;;;5074257;28;20038;-38
2024/02/05 08:08:55;;;;;;;29.30;6.35;;;10.20;90.40;;;;;;5074250;28;20492;-36
2024/02/05 08:11:20;;;;;;;21.67;5.47;;;10.30;90.50;;;;;;5074119;28;20028;-37
2024/02/05 08:13:46;;;;;;;21.27;5.20;;;10.20;90.50;;;;;;5072920;28;20111;-41
2024/02/05 08:16:11;;;;;;;21.33;5.47;;;10.20;90.40;;;;;;5072650;28;20023;-37
2024/02/05 08:18:37;;;;;;;20.63;5.70;;;10.30;90.40;;;;;;5073613;28;20046;-39
2024/02/05 08:21:04;;;;;;;25.73;5.30;;;10.30;90.50;;;;;;5074241;28;20495;-36
2024/02/05 08:23:29;;;;;;;25.30;4.93;;;10.30;90.50;;;;;;5074277;28;20385;-36
2024/02/05 08:25:55;;;;;;;24.20;5.43;;;10.30;90.40;;;;;;5073941;28;20025;-37
2024/02/05 08:28:20;;;;;;;18.48;5.35;;;10.30;90.30;;;;;;5073864;28;20033;-41
2024/02/05 08:30:46;;;;;;;24.63;5.55;;;10.30;90.20;;;;;;5072329;28;20095;-38
2024/02/05 08:33:13;;;;;;;17.65;4.47;;;10.30;90.30;;;;;;5074145;28;20055;-37
2024/02/05 08:35:40;;;;;;;13.60;5.60;;;10.30;90.40;;;;;;5073701;28;20470;-39
2024/02/05 08:38:06;;;;;;;21.20;5.43;;;10.30;90.50;;;;;;5073785;28;20473;-35
2024/02/05 08:40:32;;;;;;;20.48;4.75;;;10.40;90.60;;;;;;5073570;28;20063;-37
2024/02/05 08:42:58;;;;;;;16.55;4.38;;;10.40;90.60;;;;;;5073468;28;20082;-37
2024/02/05 08:45:24;;;;;;;14.45;4.70;;;10.40;90.70;;;;;;5073938;28;20732;-40
2024/02/05 08:47:51;;;;;;;20.52;4.72;;;10.40;90.70;;;;;;5073711;28;20094;-37
2024/02/05 08:50:16;;;;;;;15.90;5.00;;;10.40;90.70;;;;;;5072115;28;20035;-38
2024/02/05 08:52:42;;;;;;;19.60;5.07;;;10.40;90.70;;;;;;5073688;28;20024;-35
2024/02/05 08:55:08;;;;;;;25.73;5.93;;;10.40;90.70;;;;;;5073357;28;20471;-37
2024/02/05 08:57:34;;;;;;;15.27;4.80;;;10.40;90.70;;;;;;5073060;28;20028;-37
2024/02/05 09:00:00;;;;;;;18.17;5.10;;;10.40;90.60;;;;;;5073251;28;20553;-36
2024/02/05 09:02:26;;;;;;;25.25;6.18;;;10.40;90.70;;;;;;5073184;28;20029;-38
2024/02/05 09:04:52;;;;;;;19.92;5.22;;;10.40;90.50;;;;;;5073237;28;20499;-38
2024/02/05 09:07:18;;;;;;;16.73;5.13;;;10.40;90.30;;;;;;5073393;28;20028;-43
2024/02/05 09:09:44;;;;;;;26.27;6.13;;;10.40;90.30;;;;;;5073059;28;20575;-38
2024/02/05 09:12:09;;;;;;;23.67;7.38;;;10.40;90.20;;;;;;5073001;28;20032;-37
2024/02/05 09:14:35;;;;;;;25.75;7.03;;;10.40;90.20;;;;;;5072878;28;20032;-39
2024/02/05 09:17:01;;;;;;;18.30;6.93;;;10.40;90.10;;;;;;5072925;28;20028;-37
2024/02/05 09:19:27;;;;;;;29.88;7.35;;;10.30;90.20;;;;;;5073253;28;20095;-38
2024/02/05 09:21:54;;;;;;;20.60;7.85;;;10.40;90.50;;;;;;5072738;28;20021;-36
2024/02/05 09:24:20;;;;;;;35.08;10.10;;;10.40;90.20;;;;;;5072775;28;20020;-37
2024/02/05 09:26:45;;;;;;;31.55;9.45;;;10.40;90.10;;;;;;5072997;28;20132;-38
2024/02/05 09:29:11;;;;;;;25.05;9.93;;;10.40;90.10;;;;;;5071792;28;20027;-38
2024/02/05 09:31:36;;;;;;;22.40;8.70;;;10.40;90.00;;;;;;5072408;28;20400;-37
2024/02/05 09:34:02;;;;;;;33.15;9.85;;;10.30;90.00;;;;;;5072475;28;20443;-36
2024/02/05 09:36:27;;;;;;;24.92;8.75;;;10.40;89.70;;;;;;5072532;28;20058;-38
2024/02/05 09:38:53;;;;;;;28.48;8.20;;;10.30;89.60;;;;;;5072404;28;20035;-37
2024/02/05 09:41:29;;;;;;;28.25;8.45;;;10.40;89.50;;;;;;5072331;28;20025;-37
2024/02/05 09:43:55;;;;;;;21.40;7.55;;;10.30;89.20;;;;;;5072534;28;20028;-36
2024/02/05 09:46:22;;;;;;;26.50;8.75;;;10.30;89.30;;;;;;5072242;28;20051;-36
2024/02/05 09:48:50;;;;;;;24.33;8.82;;;10.40;88.90;;;;;;5072139;28;20024;-38
2024/02/05 09:51:17;;;;;;;22.33;8.88;;;10.30;88.80;;;;;;5072335;28;20036;-39
2024/02/05 09:53:45;;;;;;;27.00;9.23;;;10.30;88.70;;;;;;5072127;28;20111;-37
2024/02/05 09:56:14;;;;;;;27.48;8.82;;;10.30;88.30;;;;;;5072419;28;20074;-35
2024/02/05 09:58:40;;;;;;;26.55;7.95;;;10.30;88.60;;;;;;5071972;28;20024;-36
2024/02/05 10:01:06;;;;;;;28.60;8.13;;;10.30;88.70;;;;;;5072177;28;20036;-36
2024/02/05 10:03:33;;;;;;;27.88;7.47;;;10.30;88.30;;;;;;5071919;28;20036;-36
2024/02/05 10:06:03;;;;;;;26.38;8.52;;;10.30;88.60;;;;;;5072239;28;20040;-38
2024/02/05 10:08:33;;;;;;;21.85;7.63;;;10.30;88.40;;;;;;5071667;28;20047;-41
2024/02/05 10:11:00;;;;;;;22.13;6.65;;;10.30;88.40;;;;;;5072135;28;20028;-38
2024/02/05 10:13:27;;;;;;;27.00;8.18;;;10.30;88.40;;;;;;5072217;28;20085;-37
2024/02/05 10:15:52;;;;;;;19.45;5.97;;;10.30;87.80;;;;;;5071914;28;20028;-37
2024/02/05 10:18:18;;;;;;;17.83;6.22;;;10.30;88.00;;;;;;5071722;28;20392;-38
2024/02/05 10:20:43;;;;;;;28.42;7.07;;;10.30;88.00;;;;;;5071722;28;20060;-37
2024/02/05 10:23:09;;;;;;;26.38;6.47;;;10.40;88.10;;;;;;5071724;28;20513;-38
2024/02/05 10:25:34;;;;;;;17.20;5.22;;;10.40;88.10;;;;;;5071489;28;20419;-38
2024/02/05 10:28:02;;;;;;;18.63;5.50;;;10.40;88.00;;;;;;5072167;28;20141;-37
2024/02/05 10:30:28;;;;;;;21.65;5.88;;;10.40;87.90;;;;;;5072017;28;20029;-37
2024/02/05 10:32:58;;;;;;;21.77;5.10;;;10.40;87.50;;;;;;5071699;28;20074;-37
2024/02/05 10:35:25;;;;;;;25.05;6.15;;;10.40;87.40;;;;;;5071872;28;20448;-39
2024/02/05 10:37:51;;;;;;;23.20;5.95;;;10.50;87.60;;;;;;5071888;28;20056;-40
2024/02/05 10:40:16;;;;;;;19.13;5.53;;;10.50;87.40;;;;;;5071194;28;20028;-39
2024/02/05 10:42:43;;;;;;;21.08;5.30;;;10.50;87.40;;;;;;5071485;28;20539;-38
2024/02/05 10:45:09;;;;;;;17.48;5.25;;;10.50;87.60;;;;;;5071852;28;20420;-37
2024/02/05 10:47:36;;;;;;;22.50;6.10;;;10.60;87.50;;;;;;5071633;28;20036;-37
2024/02/05 10:50:07;;;;;;;15.70;4.88;;;10.60;87.20;;;;;;5071805;28;20056;-35
2024/02/05 10:52:33;;;;;;;23.95;5.40;;;10.70;87.10;;;;;;5071490;28;20017;-35
2024/02/05 10:54:59;;;;;;;19.50;5.07;;;10.60;87.10;;;;;;5071701;28;20095;-37
2024/02/05 10:57:26;;;;;;;23.55;5.40;;;10.70;87.10;;;;;;5071484;28;20439;-38
2024/02/05 10:59:52;;;;;;;23.55;5.53;;;10.80;86.90;;;;;;5071196;28;20480;-36
2024/02/05 11:02:36;;;;;;;23.77;5.50;;;10.70;86.50;;;;;;5071307;28;20086;-37
2024/02/05 11:05:03;;;;;;;24.55;5.45;;;10.70;86.10;;;;;;5070156;28;20036;-37
2024/02/05 11:07:38;;;;;;;21.65;5.80;;;10.70;86.30;;;;;;5071687;28;20025;-38
2024/02/05 11:10:08;;;;;;;19.92;5.07;;;10.70;86.10;;;;;;5071173;28;20032;-36
2024/02/05 11:12:35;;;;;;;25.77;6.05;;;10.70;86.20;;;;;;5071661;28;20546;-35
2024/02/05 11:15:13;;;;;;;21.25;5.63;;;10.70;85.80;;;;;;5071534;28;20032;-37
2024/02/05 11:17:39;;;;;;;18.77;5.32;;;10.70;85.80;;;;;;5071615;28;20039;-38
2024/02/05 11:20:10;;;;;;;17.67;5.22;;;10.70;85.90;;;;;;5071293;28;20025;-38
2024/02/05 11:22:38;;;;;;;26.90;6.22;;;10.70;85.90;;;;;;5071436;28;20037;-36
2024/02/05 11:25:04;;;;;;;25.35;5.40;;;10.70;85.70;;;;;;5071210;28;20020;-37
2024/02/05 11:27:31;;;;;;;24.73;5.90;;;10.80;85.80;;;;;;5071383;28;20044;-37
2024/02/05 11:29:56;;;;;;;20.23;5.75;;;10.80;85.90;;;;;;5069859;28;20498;-37
2024/02/05 11:32:32;;;;;;;19.27;4.30;;;10.80;85.70;;;;;;5071232;28;20063;-37
2024/02/05 11:34:58;;;;;;;23.75;5.28;;;10.90;85.90;;;;;;5071116;28;20040;-38
2024/02/05 11:37:24;;;;;;;27.52;6.13;;;11.00;85.40;;;;;;5071612;28;20028;-36
2024/02/05 11:39:53;;;;;;;19.48;5.07;;;11.00;85.20;;;;;;5071062;28;20054;-39
2024/02/05 11:42:18;;;;;;;29.67;5.85;;;11.00;85.40;;;;;;5070873;28;20107;-39
2024/02/05 11:44:47;;;;;;;20.52;5.38;;;11.00;85.40;;;;;;5071216;28;20059;-38
2024/02/05 11:47:13;;;;;;;23.60;5.85;;;11.10;86.10;;;;;;5070996;28;20028;-36
2024/02/05 11:49:39;;;;;;;27.10;6.40;;;11.10;85.50;;;;;;5069798;28;20024;-39
2024/02/05 11:52:05;;;;;;;21.60;6.20;;;11.10;85.20;;;;;;5072124;28;20043;-38
2024/02/05 11:54:32;;;;;;;25.45;5.72;;;11.10;85.30;;;;;;5074650;28;20477;-35
2024/02/05 11:56:57;;;;;;;21.00;5.15;;;11.20;85.10;;;;;;5074581;28;20024;-44
2024/02/05 11:59:23;;;;;;;23.10;5.45;;;11.20;85.10;;;;;;5074432;28;20033;-37
2024/02/05 12:01:50;;;;;;;21.88;5.50;;;11.30;85.20;;;;;;5074481;28;20048;-42
2024/02/05 12:04:16;;;;;;;27.67;5.55;;;11.30;85.00;;;;;;5074666;28;20090;-37
2024/02/05 12:06:45;;;;;;;19.25;5.72;;;11.30;85.00;;;;;;5074242;28;20024;-36
2024/02/05 12:09:12;;;;;;;19.20;5.88;;;11.30;84.90;;;;;;5074625;28;20024;-37
2024/02/05 12:11:41;;;;;;;20.45;5.38;;;11.30;84.80;;;;;;5074234;28;20059;-39
2024/02/05 12:14:08;;;;;;;26.67;6.30;;;11.30;84.60;;;;;;5074202;28;20127;-36
2024/02/05 12:16:33;;;;;;;21.58;5.95;;;11.40;84.20;;;;;;5072685;28;20017;-37
2024/02/05 12:18:59;;;;;;;27.58;6.30;;;11.40;84.40;;;;;;5074435;28;20134;-39
2024/02/05 12:21:26;;;;;;;21.95;6.30;;;11.40;84.40;;;;;;5073949;28;20027;-36
2024/02/05 12:23:52;;;;;;;23.95;5.80;;;11.40;84.60;;;;;;5072790;28;20032;-41
2024/02/05 12:26:18;;;;;;;21.63;5.70;;;11.40;84.60;;;;;;5073978;28;20104;-48
2024/02/05 12:28:50;;;;;;;19.63;5.43;;;11.50;84.60;;;;;;5074294;28;20025;-42
2024/02/05 12:31:20;;;;;;;21.95;5.47;;;11.50;84.60;;;;;;5073857;28;20376;-38
2024/02/05 12:33:59;;;;;;;22.15;5.85;;;11.50;84.40;;;;;;5074237;28;20024;-38